Time;durP1;ratioP1;P1;durP2;ratioP2;P2;SDS_P1;SDS_P2;PMS_P1;PMS_P2;Temp;Humidity;BMP_temperature;BMP_pressure;BME280_temperature;BME280_humidity;BME280_pressure;Samples;Min_cycle;Max_cycle;Signal;HPM_P1;HPM_P2
2022/03/19 00:00:45;;;;;;;9.93;2.55;;;6.60;99.90;;;;;;5044979;28;20107;-71
2022/03/19 00:03:12;;;;;;;7.47;2.78;;;6.60;99.90;;;;;;5044816;28;20022;-69
2022/03/19 00:05:39;;;;;;;8.80;2.92;;;6.50;99.90;;;;;;5045092;28;20385;-70
2022/03/19 00:08:05;;;;;;;16.27;3.80;;;6.50;99.90;;;;;;5044904;28;20057;-70
2022/03/19 00:10:31;;;;;;;8.15;3.40;;;6.50;99.90;;;;;;5034030;28;20037;-71
2022/03/19 00:12:58;;;;;;;14.82;3.65;;;6.40;99.90;;;;;;5025032;28;20522;-69
2022/03/19 00:15:26;;;;;;;13.70;3.00;;;6.40;99.90;;;;;;5024708;28;20030;-70
2022/03/19 00:18:01;;;;;;;16.25;3.60;;;6.40;99.90;;;;;;5024374;28;20049;-71
2022/03/19 00:20:27;;;;;;;;;;;6.30;99.90;;;;;;5035164;28;20045;-71
2022/03/19 00:22:52;;;;;;;5.95;3.10;;;6.30;99.90;;;;;;5044139;28;20296;-71
2022/03/19 00:25:18;;;;;;;9.80;3.72;;;6.40;99.90;;;;;;5044175;28;20033;-71
2022/03/19 00:27:43;;;;;;;5.63;2.65;;;6.40;99.90;;;;;;5044531;28;20132;-70
2022/03/19 00:30:10;;;;;;;12.05;3.85;;;6.30;99.90;;;;;;5041688;28;20021;-72
2022/03/19 00:32:36;;;;;;;6.03;2.03;;;6.30;99.90;;;;;;5024838;28;20057;-70
2022/03/19 00:35:03;;;;;;;11.30;2.88;;;6.30;99.90;;;;;;5023497;28;20030;-70
2022/03/19 00:37:30;;;;;;;18.65;5.20;;;6.20;99.90;;;;;;5024452;28;20045;-69
2022/03/19 00:39:55;;;;;;;17.30;3.05;;;6.20;99.90;;;;;;5030727;28;20025;-69
2022/03/19 00:42:31;;;;;;;13.95;3.05;;;6.20;99.90;;;;;;5044593;28;20485;-70
2022/03/19 00:44:56;;;;;;;5.28;2.50;;;6.10;99.90;;;;;;5044425;28;20055;-70
2022/03/19 00:47:22;;;;;;;8.90;2.58;;;6.10;99.90;;;;;;5044413;28;20049;-70
2022/03/19 00:49:48;;;;;;;8.48;3.17;;;6.00;99.90;;;;;;5044414;28;20036;-71
2022/03/19 00:52:23;;;;;;;10.00;3.25;;;6.00;99.90;;;;;;5044063;28;20040;-71
2022/03/19 00:54:49;;;;;;;8.88;3.17;;;5.90;99.90;;;;;;5047285;28;20029;-71
2022/03/19 00:57:15;;;;;;;9.32;2.45;;;5.90;99.90;;;;;;5048317;28;20042;-71
2022/03/19 00:59:40;;;;;;;9.70;2.83;;;5.90;99.90;;;;;;5048127;28;20034;-69
2022/03/19 01:02:07;;;;;;;14.20;4.25;;;5.80;99.90;;;;;;5047994;28;20036;-73
2022/03/19 01:04:33;;;;;;;11.52;3.42;;;5.80;99.90;;;;;;5047733;28;20031;-71
2022/03/19 01:06:59;;;;;;;5.18;2.88;;;5.80;99.90;;;;;;5048240;28;20446;-69
2022/03/19 01:09:24;;;;;;;8.80;3.47;;;5.80;99.90;;;;;;5048243;28;20040;-70
2022/03/19 01:11:52;;;;;;;12.23;3.40;;;5.80;99.90;;;;;;5047893;28;20099;-71
2022/03/19 01:14:18;;;;;;;6.88;2.67;;;5.70;99.90;;;;;;5046273;28;20025;-72
2022/03/19 01:16:44;;;;;;;12.30;4.05;;;5.70;99.90;;;;;;5047803;28;20090;-70
2022/03/19 01:19:10;;;;;;;19.73;2.90;;;5.70;99.90;;;;;;5047944;28;20025;-69
2022/03/19 01:21:39;;;;;;;12.25;3.03;;;5.70;99.90;;;;;;5047605;28;20447;-72
2022/03/19 01:24:05;;;;;;;10.02;3.05;;;5.70;99.90;;;;;;5047884;28;20025;-70
2022/03/19 01:26:31;;;;;;;5.72;3.17;;;5.70;99.90;;;;;;5047534;28;20025;-70
2022/03/19 01:29:09;;;;;;;7.38;3.92;;;5.60;99.90;;;;;;5047733;28;20032;-68
2022/03/19 01:31:35;;;;;;;17.92;3.88;;;5.60;99.90;;;;;;5047826;28;20053;-72
2022/03/19 01:34:00;;;;;;;16.80;4.05;;;5.60;99.90;;;;;;5047393;28;20430;-70
2022/03/19 01:36:26;;;;;;;8.35;3.72;;;5.50;99.90;;;;;;5047688;28;20033;-70
2022/03/19 01:38:59;;;;;;;17.65;4.07;;;5.60;99.90;;;;;;5047445;28;20084;-69
2022/03/19 01:41:24;;;;;;;16.83;4.28;;;5.60;99.90;;;;;;5047443;28;20358;-70
2022/03/19 01:43:50;;;;;;;11.50;3.47;;;5.50;99.90;;;;;;5046069;28;20483;-70
2022/03/19 01:46:16;;;;;;;12.60;3.80;;;5.50;99.90;;;;;;5047125;28;20097;-70
2022/03/19 01:48:42;;;;;;;6.32;3.33;;;5.50;99.90;;;;;;5047869;28;20021;-70
2022/03/19 01:51:08;;;;;;;11.55;3.22;;;5.50;99.90;;;;;;5047095;28;20042;-72
2022/03/19 01:53:33;;;;;;;5.38;3.35;;;5.40;99.90;;;;;;5046465;28;20061;-71
2022/03/19 01:56:03;;;;;;;19.67;4.75;;;5.40;99.90;;;;;;5047313;28;20032;-73
2022/03/19 01:58:30;;;;;;;16.55;4.72;;;5.40;99.90;;;;;;5047116;28;20129;-69
2022/03/19 02:00:57;;;;;;;10.88;4.70;;;5.30;99.90;;;;;;5046565;28;20041;-69
2022/03/19 02:03:32;;;;;;;12.43;3.70;;;5.30;99.90;;;;;;5045709;28;20034;-70
2022/03/19 02:06:00;;;;;;;13.90;5.10;;;5.30;99.90;;;;;;5046485;28;20026;-71
2022/03/19 02:08:26;;;;;;;13.95;4.32;;;5.40;99.90;;;;;;5044965;28;20030;-70
2022/03/19 02:10:52;;;;;;;13.80;4.38;;;5.30;99.90;;;;;;5031127;28;20030;-70
2022/03/19 02:13:18;;;;;;;17.02;5.28;;;5.30;99.90;;;;;;5026680;28;20030;-70
2022/03/19 02:15:45;;;;;;;11.88;5.03;;;5.30;99.90;;;;;;5026807;28;20097;-71
2022/03/19 02:18:10;;;;;;;14.35;5.05;;;5.30;99.90;;;;;;5026785;28;20069;-70
2022/03/19 02:20:36;;;;;;;18.40;4.63;;;5.20;99.90;;;;;;5026539;28;20029;-69
2022/03/19 02:25:48;;;;;;;15.48;4.60;;;5.20;99.90;;;;;;5047089;28;20056;-69
2022/03/19 02:28:14;;;;;;;14.15;4.40;;;5.20;99.90;;;;;;5046392;28;20064;-69
2022/03/19 02:30:42;;;;;;;10.02;4.55;;;5.10;99.90;;;;;;5046753;28;20053;-69
2022/03/19 02:33:09;;;;;;;16.17;4.25;;;5.10;99.90;;;;;;5046639;28;20021;-72
2022/03/19 02:35:34;;;;;;;14.38;4.00;;;5.00;99.90;;;;;;5046205;28;20481;-69
2022/03/19 02:38:00;;;;;;;19.92;5.38;;;5.10;99.90;;;;;;5042275;28;20033;-69
2022/03/19 02:40:25;;;;;;;16.20;4.72;;;4.90;99.90;;;;;;5036910;28;20053;-71
2022/03/19 02:42:53;;;;;;;19.90;5.53;;;5.00;99.90;;;;;;5045977;28;20026;-70
2022/03/19 02:45:21;;;;;;;13.52;4.88;;;4.90;99.90;;;;;;5046387;28;20045;-71
2022/03/19 02:47:58;;;;;;;16.33;5.43;;;4.90;99.90;;;;;;5042057;28;20030;-69
2022/03/19 02:50:30;;;;;;;19.98;5.60;;;4.80;99.90;;;;;;5025901;28;20033;-71
2022/03/19 02:52:57;;;;;;;20.92;4.85;;;4.80;99.90;;;;;;5026326;28;20113;-70
2022/03/19 02:55:23;;;;;;;20.88;6.22;;;4.70;99.90;;;;;;5041776;28;20034;-68
2022/03/19 02:57:54;;;;;;;20.45;5.22;;;4.80;99.90;;;;;;5027011;28;20058;-70
2022/03/19 03:00:22;;;;;;;13.52;5.13;;;4.70;99.90;;;;;;5044559;28;20026;-69
2022/03/19 03:02:48;;;;;;;12.15;5.15;;;4.60;99.90;;;;;;5046099;28;20056;-69
2022/03/19 03:05:14;;;;;;;22.88;5.65;;;4.60;99.90;;;;;;5045825;28;20025;-70
2022/03/19 03:07:40;;;;;;;12.40;5.75;;;4.60;99.90;;;;;;5046158;28;20113;-70
2022/03/19 03:10:07;;;;;;;12.35;4.63;;;4.50;99.90;;;;;;5045894;28;20079;-70
2022/03/19 03:12:32;;;;;;;17.33;5.10;;;4.50;99.90;;;;;;5045545;28;20060;-70
2022/03/19 03:14:58;;;;;;;13.77;4.30;;;4.50;99.90;;;;;;5045547;28;20041;-70
2022/03/19 03:17:24;;;;;;;15.40;4.63;;;4.50;99.90;;;;;;5044464;28;20058;-69
2022/03/19 03:19:51;;;;;;;24.13;5.82;;;4.50;99.90;;;;;;5041276;28;20083;-70
2022/03/19 03:22:17;;;;;;;16.33;4.63;;;4.30;99.90;;;;;;5026081;28;20382;-69
2022/03/19 03:24:42;;;;;;;11.93;5.07;;;4.40;99.90;;;;;;5043774;28;20036;-69
2022/03/19 03:27:08;;;;;;;16.70;4.80;;;4.30;99.90;;;;;;5034581;28;20040;-71
2022/03/19 03:29:34;;;;;;;12.43;5.50;;;4.30;99.90;;;;;;5025567;28;20025;-69
2022/03/19 03:31:59;;;;;;;24.60;5.20;;;4.30;99.90;;;;;;5025009;28;20026;-70
2022/03/19 03:34:25;;;;;;;11.25;4.85;;;4.20;99.90;;;;;;5025457;28;20037;-70
2022/03/19 03:36:50;;;;;;;9.38;4.15;;;4.20;99.90;;;;;;5024333;28;20029;-70
2022/03/19 03:39:16;;;;;;;14.55;5.15;;;4.20;99.90;;;;;;5025455;28;20026;-71
2022/03/19 03:41:42;;;;;;;13.23;5.68;;;4.20;99.90;;;;;;5025888;28;20033;-70
2022/03/19 03:44:11;;;;;;;20.45;4.82;;;4.20;99.90;;;;;;5025302;28;20041;-72
2022/03/19 03:46:38;;;;;;;12.95;4.63;;;4.10;99.90;;;;;;5025269;28;20049;-71
2022/03/19 03:49:03;;;;;;;11.40;4.15;;;4.10;99.90;;;;;;5044347;28;20029;-71
2022/03/19 03:51:29;;;;;;;8.80;4.32;;;4.10;99.90;;;;;;5025927;28;20471;-71
2022/03/19 03:53:55;;;;;;;32.72;5.20;;;4.10;99.90;;;;;;5024946;28;20102;-70
2022/03/19 03:56:21;;;;;;;23.88;4.45;;;4.10;99.90;;;;;;5025451;28;20030;-70
2022/03/19 03:58:48;;;;;;;13.00;4.85;;;4.10;99.90;;;;;;5025278;28;20048;-71
2022/03/19 04:01:16;;;;;;;14.57;5.07;;;4.00;99.90;;;;;;5024960;28;20088;-71
2022/03/19 04:03:41;;;;;;;19.55;5.05;;;4.00;99.90;;;;;;5025478;28;20033;-70
2022/03/19 04:06:07;;;;;;;14.65;4.40;;;4.00;99.90;;;;;;5025352;28;20049;-70
2022/03/19 04:08:33;;;;;;;12.35;4.80;;;4.00;99.90;;;;;;5024763;28;20034;-71
2022/03/19 04:10:59;;;;;;;12.90;4.28;;;4.00;99.90;;;;;;5025266;28;20034;-70
2022/03/19 04:13:24;;;;;;;17.25;4.85;;;4.00;99.90;;;;;;5024923;28;20030;-71
2022/03/19 04:15:50;;;;;;;13.50;4.78;;;3.90;99.90;;;;;;5024455;28;20053;-71
2022/03/19 04:18:16;;;;;;;10.40;4.07;;;3.90;99.90;;;;;;5025236;28;20068;-70
2022/03/19 04:20:42;;;;;;;12.18;4.90;;;3.90;99.90;;;;;;5042517;28;20037;-70
2022/03/19 04:23:08;;;;;;;10.27;4.90;;;3.90;99.90;;;;;;5044413;28;20030;-69
2022/03/19 04:25:34;;;;;;;10.13;4.38;;;3.90;99.90;;;;;;5029195;28;20060;-70
2022/03/19 04:28:01;;;;;;;10.40;4.47;;;3.90;99.90;;;;;;5024604;28;20022;-70
2022/03/19 04:30:27;;;;;;;9.27;4.15;;;3.90;99.90;;;;;;5024597;28;20030;-70
2022/03/19 04:33:04;;;;;;;16.98;4.63;;;3.80;99.90;;;;;;5024897;28;20030;-71
2022/03/19 04:38:19;;;;;;;12.25;5.63;;;3.80;99.90;;;;;;5033204;28;20121;-72
2022/03/19 04:40:47;;;;;;;15.05;4.60;;;3.70;99.90;;;;;;5043412;28;20113;-70
2022/03/19 04:43:14;;;;;;;11.18;4.32;;;3.80;99.90;;;;;;5044281;28;20021;-72
2022/03/19 04:45:42;;;;;;;22.98;4.78;;;3.80;99.90;;;;;;5044729;28;20072;-69
2022/03/19 04:48:09;;;;;;;19.67;4.93;;;3.70;99.90;;;;;;5044793;28;20026;-70
2022/03/19 04:50:39;;;;;;;15.45;5.28;;;3.70;99.90;;;;;;5043964;28;20033;-71
2022/03/19 04:53:06;;;;;;;21.58;5.45;;;3.70;99.90;;;;;;5044789;28;20030;-71
2022/03/19 04:55:33;;;;;;;11.77;4.90;;;3.70;99.90;;;;;;5044519;28;20026;-69
2022/03/19 04:57:59;;;;;;;12.25;4.60;;;3.70;99.90;;;;;;5042649;28;20462;-70
2022/03/19 05:00:25;;;;;;;20.52;4.70;;;3.60;99.90;;;;;;5044366;28;20048;-70
2022/03/19 05:02:50;;;;;;;9.40;4.32;;;3.60;99.90;;;;;;5044088;28;20025;-71
2022/03/19 05:05:17;;;;;;;5.68;3.65;;;3.60;99.90;;;;;;5043476;28;20034;-70
2022/03/19 05:07:42;;;;;;;22.33;5.20;;;3.50;99.90;;;;;;5032283;28;20022;-70
2022/03/19 05:13:03;;;;;;;10.02;4.95;;;3.50;99.90;;;;;;5024562;28;20057;-70
2022/03/19 05:15:28;;;;;;;13.57;5.63;;;3.50;99.90;;;;;;5035375;28;20390;-69
2022/03/19 05:17:54;;;;;;;11.00;4.28;;;3.40;99.90;;;;;;5035362;28;20054;-70
2022/03/19 05:20:19;;;;;;;8.90;3.67;;;3.40;99.90;;;;;;5024699;28;20029;-70
2022/03/19 05:22:47;;;;;;;12.60;5.18;;;3.40;99.90;;;;;;5038172;28;20076;-71
2022/03/19 05:25:13;;;;;;;9.38;4.65;;;3.30;99.90;;;;;;5023728;28;20049;-71
2022/03/19 05:27:39;;;;;;;12.55;4.47;;;3.30;99.90;;;;;;5026258;28;20045;-68
2022/03/19 05:30:06;;;;;;;11.10;5.15;;;3.30;99.90;;;;;;5024517;28;20033;-71
2022/03/19 05:32:39;;;;;;;9.00;3.45;;;3.30;99.90;;;;;;5023477;28;20041;-70
2022/03/19 05:35:06;;;;;;;18.10;5.50;;;3.30;99.90;;;;;;5022787;28;20037;-69
2022/03/19 05:37:32;;;;;;;16.67;5.78;;;3.20;99.90;;;;;;5026574;28;20030;-70
2022/03/19 05:40:00;;;;;;;12.32;4.50;;;3.20;99.90;;;;;;5043403;28;20030;-70
2022/03/19 05:42:40;;;;;;;9.32;3.88;;;3.20;99.90;;;;;;5046539;28;20032;-73
2022/03/19 05:45:06;;;;;;;12.73;3.53;;;3.20;99.90;;;;;;5047226;28;20084;-69
2022/03/19 05:47:31;;;;;;;10.02;4.10;;;3.20;99.90;;;;;;5047054;28;20119;-69
2022/03/19 05:49:57;;;;;;;22.65;4.90;;;3.30;99.90;;;;;;5047453;28;20033;-69
2022/03/19 05:52:22;;;;;;;14.27;4.38;;;3.30;99.90;;;;;;5047372;28;20421;-71
2022/03/19 05:54:48;;;;;;;23.27;5.28;;;3.30;99.90;;;;;;5047322;28;20021;-69
2022/03/19 05:57:14;;;;;;;8.18;3.95;;;3.30;99.90;;;;;;5047305;28;20521;-71
2022/03/19 05:59:40;;;;;;;8.70;4.32;;;3.30;99.90;;;;;;5047077;28;20551;-72
2022/03/19 06:02:09;;;;;;;17.15;4.65;;;3.30;99.90;;;;;;5046976;28;20081;-72
2022/03/19 06:04:35;;;;;;;12.68;4.50;;;3.30;99.90;;;;;;5047138;28;20448;-70
2022/03/19 06:07:01;;;;;;;10.50;4.15;;;3.30;99.90;;;;;;5043970;28;20049;-70
2022/03/19 06:09:26;;;;;;;17.25;4.28;;;3.30;99.90;;;;;;5046934;28;20022;-69
2022/03/19 06:11:52;;;;;;;19.60;4.45;;;3.40;99.90;;;;;;5031064;28;20029;-70
2022/03/19 06:14:31;;;;;;;25.08;3.80;;;3.40;99.90;;;;;;5027110;28;20083;-72
2022/03/19 06:16:56;;;;;;;9.07;3.63;;;3.40;99.90;;;;;;5025330;28;20516;-69
2022/03/19 06:19:22;;;;;;;9.15;3.47;;;3.50;99.90;;;;;;5035172;28;20033;-69
2022/03/19 06:21:48;;;;;;;8.27;3.60;;;3.50;99.90;;;;;;5046128;28;20030;-69
2022/03/19 06:24:13;;;;;;;11.60;3.50;;;3.50;99.90;;;;;;5046657;28;20060;-71
2022/03/19 06:26:39;;;;;;;9.88;3.38;;;3.60;99.90;;;;;;5045943;28;20038;-70
2022/03/19 06:29:05;;;;;;;13.18;2.45;;;3.60;99.90;;;;;;5046387;28;20033;-69
2022/03/19 06:31:31;;;;;;;7.22;3.42;;;3.60;99.90;;;;;;5044928;28;20084;-70
2022/03/19 06:33:56;;;;;;;8.48;2.80;;;3.60;99.90;;;;;;5044020;28;20026;-72
2022/03/19 06:39:06;;;;;;;10.75;3.30;;;3.70;99.90;;;;;;5046082;28;20412;-71
2022/03/19 06:41:33;;;;;;;10.48;3.28;;;3.80;99.90;;;;;;5044363;28;20033;-71
2022/03/19 06:43:59;;;;;;;9.98;3.47;;;3.80;99.90;;;;;;5046190;28;20033;-71
2022/03/19 06:46:25;;;;;;;12.23;4.53;;;4.00;99.90;;;;;;5045372;28;20036;-71
2022/03/19 06:48:51;;;;;;;8.82;2.92;;;3.90;99.90;;;;;;5045797;28;20052;-71
2022/03/19 06:51:18;;;;;;;18.13;4.70;;;4.00;99.90;;;;;;5044612;28;20033;-70
2022/03/19 06:53:45;;;;;;;24.67;4.35;;;4.00;99.90;;;;;;5044428;28;20060;-69
2022/03/19 06:56:13;;;;;;;19.30;3.97;;;4.10;99.90;;;;;;5044036;28;20034;-69
2022/03/19 06:58:39;;;;;;;21.52;3.47;;;4.10;99.90;;;;;;5034457;28;20427;-68
2022/03/19 07:01:05;;;;;;;8.95;3.22;;;4.20;99.90;;;;;;5044441;28;20025;-68
2022/03/19 07:03:31;;;;;;;6.22;2.58;;;4.20;99.90;;;;;;5045863;28;20121;-68
2022/03/19 07:05:57;;;;;;;9.77;2.72;;;4.40;99.90;;;;;;5045668;28;20030;-68
2022/03/19 07:08:23;;;;;;;22.30;4.80;;;4.40;99.90;;;;;;5039112;28;20035;-67
2022/03/19 07:10:49;;;;;;;9.45;2.45;;;4.50;99.90;;;;;;5044360;28;20032;-69
2022/03/19 07:13:15;;;;;;;4.40;2.33;;;4.60;99.90;;;;;;5045805;28;20022;-68
2022/03/19 07:15:41;;;;;;;8.23;2.90;;;4.70;99.90;;;;;;5043405;28;20117;-69
2022/03/19 07:18:07;;;;;;;5.68;2.15;;;4.80;99.90;;;;;;5044830;28;20044;-68
2022/03/19 07:20:33;;;;;;;10.77;2.90;;;4.90;99.90;;;;;;5029864;28;20079;-68
2022/03/19 07:23:01;;;;;;;9.70;2.97;;;5.00;99.90;;;;;;5032177;28;20042;-69
2022/03/19 07:25:29;;;;;;;6.28;2.35;;;5.10;99.90;;;;;;5030863;28;20033;-68
2022/03/19 07:27:58;;;;;;;5.70;2.60;;;5.20;99.90;;;;;;5035921;28;20041;-69
2022/03/19 07:30:24;;;;;;;7.45;2.42;;;5.30;99.90;;;;;;5037071;28;20394;-68
2022/03/19 07:32:54;;;;;;;7.80;3.28;;;5.40;99.90;;;;;;5036958;28;20043;-71
2022/03/19 07:35:21;;;;;;;3.75;1.70;;;5.50;99.90;;;;;;5035642;28;20026;-70
2022/03/19 07:37:48;;;;;;;4.32;2.00;;;5.60;99.90;;;;;;5031598;28;20084;-71
2022/03/19 07:41:45;;;;;;;7.68;2.35;;;5.70;99.90;;;;;;5033023;28;20110;-70
2022/03/19 07:43:10;;;;;;;4.97;2.40;;;5.80;99.90;;;;;;5027538;28;20061;-69
2022/03/19 07:45:37;;;;;;;2.70;1.95;;;6.00;99.90;;;;;;5029100;28;20029;-70
2022/03/19 07:48:03;;;;;;;6.28;2.22;;;6.10;99.90;;;;;;5031959;28;20067;-68
2022/03/19 07:50:29;;;;;;;5.85;2.15;;;6.20;99.90;;;;;;5039341;28;20079;-68
2022/03/19 07:52:55;;;;;;;7.35;2.38;;;6.30;99.90;;;;;;5039560;28;20040;-69
2022/03/19 07:55:21;;;;;;;7.45;1.60;;;6.40;99.90;;;;;;5033878;28;20029;-69
2022/03/19 07:57:46;;;;;;;4.63;2.15;;;6.60;99.90;;;;;;5043605;28;20052;-68
2022/03/19 08:00:16;;;;;;;13.07;2.03;;;6.80;99.90;;;;;;5044340;28;20032;-70
2022/03/19 08:02:45;;;;;;;6.45;2.15;;;7.10;99.90;;;;;;5035270;28;20075;-72
2022/03/19 08:05:12;;;;;;;7.05;1.92;;;7.30;99.90;;;;;;5044507;28;20056;-68
2022/03/19 08:07:38;;;;;;;5.68;1.75;;;7.60;99.90;;;;;;5038923;28;20049;-69
2022/03/19 08:10:13;;;;;;;5.25;1.45;;;7.80;99.90;;;;;;5030774;28;20029;-68
2022/03/19 08:12:39;;;;;;;;;;;8.00;99.90;;;;;;5030338;28;20022;-68
2022/03/19 08:15:06;;;;;;;5.45;1.35;;;8.20;99.90;;;;;;5031266;28;19918;-69
2022/03/19 08:17:33;;;;;;;6.97;1.80;;;8.40;99.90;;;;;;5027592;28;20148;-68
2022/03/19 08:20:04;;;;;;;11.00;1.75;;;8.60;99.90;;;;;;5024991;28;20029;-70
2022/03/19 08:22:30;;;;;;;5.80;1.60;;;8.90;99.90;;;;;;5030373;28;20026;-70
2022/03/19 08:24:55;;;;;;;10.02;1.85;;;9.10;99.90;;;;;;5032734;28;20041;-69
2022/03/19 08:27:23;;;;;;;8.35;2.00;;;9.20;99.90;;;;;;5026310;28;20037;-71
2022/03/19 08:29:52;;;;;;;10.77;1.48;;;9.30;99.90;;;;;;5024504;28;20072;-70
2022/03/19 08:32:18;;;;;;;6.80;1.42;;;9.50;99.90;;;;;;5035645;28;20060;-70
2022/03/19 08:34:44;;;;;;;9.30;1.90;;;9.60;99.90;;;;;;5030860;28;20061;-69
2022/03/19 08:37:11;;;;;;;11.52;1.80;;;9.80;99.90;;;;;;5024953;28;20145;-70
2022/03/19 08:42:22;;;;;;;6.65;1.65;;;9.80;99.90;;;;;;5038181;28;20485;-70
2022/03/19 08:44:48;;;;;;;6.93;1.83;;;10.00;99.90;;;;;;5028603;28;20030;-69
2022/03/19 08:47:15;;;;;;;6.53;1.70;;;10.00;99.90;;;;;;5034781;28;20037;-71
2022/03/19 08:49:41;;;;;;;7.15;1.50;;;10.10;99.90;;;;;;5025155;28;20030;-68
2022/03/19 08:52:07;;;;;;;2.40;1.38;;;10.10;99.90;;;;;;5024901;28;20109;-70
2022/03/19 08:54:32;;;;;;;2.83;1.45;;;10.10;99.90;;;;;;5024833;28;20034;-69
2022/03/19 08:56:58;;;;;;;1.83;0.88;;;10.20;99.90;;;;;;5024398;28;20036;-69
2022/03/19 08:59:24;;;;;;;11.10;1.52;;;10.40;99.90;;;;;;5025116;28;20049;-69
2022/03/19 09:01:52;;;;;;;3.70;1.25;;;10.60;99.90;;;;;;5035846;28;20091;-70
2022/03/19 09:04:18;;;;;;;7.18;1.17;;;10.70;99.90;;;;;;5031293;28;20029;-71
2022/03/19 09:06:44;;;;;;;7.20;1.17;;;10.80;99.90;;;;;;5028590;28;20030;-68
2022/03/19 09:09:11;;;;;;;4.28;1.05;;;11.00;99.90;;;;;;5044645;28;20032;-70
2022/03/19 09:11:37;;;;;;;7.90;1.55;;;11.20;99.90;;;;;;5043350;28;20081;-68
2022/03/19 09:14:04;;;;;;;6.25;1.77;;;11.40;99.90;;;;;;5037259;28;20037;-70
2022/03/19 09:16:34;;;;;;;4.25;1.45;;;11.50;99.90;;;;;;5039294;28;20214;-71
2022/03/19 09:19:00;;;;;;;7.60;1.75;;;11.50;99.90;;;;;;5032660;28;20044;-71
2022/03/19 09:21:29;;;;;;;11.32;1.85;;;11.50;99.90;;;;;;5040068;28;20025;-69
2022/03/19 09:23:58;;;;;;;3.60;1.40;;;11.50;99.90;;;;;;5032170;28;20022;-70
2022/03/19 09:26:24;;;;;;;3.90;1.08;;;11.60;99.90;;;;;;5039855;28;20093;-71
2022/03/19 09:28:50;;;;;;;2.67;0.95;;;11.70;99.90;;;;;;5034642;28;20081;-72
2022/03/19 09:31:20;;;;;;;1.95;0.73;;;11.80;99.90;;;;;;5030819;28;20022;-71
2022/03/19 09:33:47;;;;;;;6.75;1.70;;;11.90;99.90;;;;;;5036966;28;20034;-71
2022/03/19 09:36:16;;;;;;;1.80;0.93;;;12.10;99.90;;;;;;5031005;28;20116;-70
2022/03/19 09:38:50;;;;;;;12.23;1.35;;;12.20;99.90;;;;;;5033833;28;20037;-69
2022/03/19 09:41:16;;;;;;;12.18;1.45;;;12.20;99.90;;;;;;5038261;28;20040;-70
2022/03/19 09:43:42;;;;;;;1.33;0.40;;;12.20;99.90;;;;;;5038755;28;20049;-69
2022/03/19 09:46:19;;;;;;;1.90;0.65;;;12.40;99.90;;;;;;5038971;28;20053;-70
2022/03/19 09:48:45;;;;;;;5.38;1.30;;;12.50;99.90;;;;;;5027532;28;20061;-71
2022/03/19 09:51:12;;;;;;;6.63;1.33;;;12.50;99.90;;;;;;5034587;28;20033;-70
2022/03/19 09:53:41;;;;;;;2.65;1.02;;;12.70;99.90;;;;;;5035205;28;20061;-70
2022/03/19 09:56:11;;;;;;;6.10;1.33;;;13.00;99.90;;;;;;5037096;28;20657;-69
2022/03/19 09:58:36;;;;;;;5.15;0.98;;;13.00;99.90;;;;;;5030012;28;20046;-70
2022/03/19 10:01:06;;;;;;;2.42;0.82;;;13.20;99.90;;;;;;5033759;28;20035;-71
2022/03/19 10:03:41;;;;;;;6.82;1.83;;;13.30;99.90;;;;;;5029865;28;20041;-68
2022/03/19 10:09:04;;;;;;;2.72;0.70;;;13.50;99.90;;;;;;5030752;28;20037;-70
2022/03/19 10:11:35;;;;;;;2.80;1.23;;;13.70;99.90;;;;;;5040335;28;20068;-68
2022/03/19 10:14:06;;;;;;;6.05;1.15;;;13.80;99.90;;;;;;5045513;28;20037;-70
2022/03/19 10:16:34;;;;;;;3.92;0.90;;;13.90;99.90;;;;;;5040329;28;20071;-69
2022/03/19 10:19:03;;;;;;;8.95;1.00;;;14.00;99.90;;;;;;5038332;28;20046;-71
2022/03/19 10:21:34;;;;;;;3.20;1.02;;;14.10;99.90;;;;;;5033748;28;20033;-71
2022/03/19 10:24:01;;;;;;;6.03;1.42;;;14.30;99.90;;;;;;5037117;28;20022;-69
2022/03/19 10:26:29;;;;;;;7.10;0.80;;;14.50;99.90;;;;;;5042292;28;20029;-70
2022/03/19 10:29:22;;;;;;;2.25;1.10;;;14.50;99.90;;;;;;5042305;28;20102;-70
2022/03/19 10:31:50;;;;;;;0.80;0.60;;;14.30;99.90;;;;;;5027204;28;20029;-70
2022/03/19 10:34:16;;;;;;;2.17;0.85;;;14.40;99.90;;;;;;5036719;28;20026;-70
2022/03/19 10:36:44;;;;;;;3.13;1.00;;;14.60;99.90;;;;;;5031176;28;20087;-68
2022/03/19 10:39:14;;;;;;;2.80;0.93;;;14.90;99.90;;;;;;5037944;28;20561;-72
2022/03/19 10:41:41;;;;;;;4.47;1.20;;;15.10;99.90;;;;;;5039579;28;20030;-72
2022/03/19 10:44:19;;;;;;;1.73;0.40;;;15.30;99.90;;;;;;5035839;28;20378;-70
2022/03/19 10:46:56;;;;;;;4.90;0.50;;;15.30;99.90;;;;;;5034957;28;20045;-71
2022/03/19 10:49:25;;;;;;;5.60;1.13;;;15.20;99.90;;;;;;5032553;28;20029;-69
2022/03/19 10:51:53;;;;;;;1.95;0.75;;;15.30;99.90;;;;;;5035303;28;20462;-72
2022/03/19 10:54:20;;;;;;;2.47;0.65;;;15.40;99.90;;;;;;5037422;28;20085;-70
2022/03/19 10:56:53;;;;;;;4.03;0.70;;;15.50;99.90;;;;;;5039050;28;20044;-68
2022/03/19 10:59:19;;;;;;;1.60;0.95;;;15.50;99.90;;;;;;5033858;28;20038;-71
2022/03/19 11:01:49;;;;;;;1.58;0.68;;;15.50;99.90;;;;;;5025146;28;20049;-72
2022/03/19 11:04:15;;;;;;;3.75;1.05;;;15.50;99.90;;;;;;5040839;28;20061;-71
2022/03/19 11:06:44;;;;;;;2.15;0.75;;;15.50;99.90;;;;;;5041423;28;20038;-69
2022/03/19 11:09:11;;;;;;;1.77;0.63;;;15.60;99.90;;;;;;5046413;28;20026;-69
2022/03/19 11:11:49;;;;;;;3.78;0.70;;;15.70;99.90;;;;;;5046080;28;20053;-70
2022/03/19 11:14:25;;;;;;;2.13;0.70;;;15.80;99.90;;;;;;5038703;28;20034;-70
2022/03/19 11:19:45;;;;;;;1.20;0.80;;;16.10;99.90;;;;;;5036393;28;20045;-70
2022/03/19 11:22:15;;;;;;;3.35;1.13;;;16.00;99.90;;;;;;5040638;28;20025;-69
2022/03/19 11:25:23;;;;;;;2.65;0.93;;;16.20;99.90;;;;;;5042529;28;20668;-69
2022/03/19 11:27:52;;;;;;;1.70;0.50;;;16.40;99.90;;;;;;5023382;28;20079;-70
2022/03/19 11:30:22;;;;;;;4.07;1.17;;;16.90;99.90;;;;;;5033522;28;20049;-71
2022/03/19 11:33:06;;;;;;;4.57;0.70;;;17.20;99.90;;;;;;5025948;28;20037;-70
2022/03/19 11:35:35;;;;;;;4.32;0.82;;;17.10;99.90;;;;;;5028665;28;20084;-71
2022/03/19 11:38:11;;;;;;;4.28;0.82;;;17.10;99.90;;;;;;5035975;28;20052;-67
2022/03/19 11:40:47;;;;;;;1.38;0.50;;;17.20;99.90;;;;;;5028280;28;20393;-70
2022/03/19 11:43:30;;;;;;;0.90;0.60;;;17.30;99.90;;;;;;5043732;28;20079;-68
2022/03/19 11:46:09;;;;;;;3.10;0.80;;;17.20;99.90;;;;;;5036941;28;20029;-69
2022/03/19 11:48:35;;;;;;;4.78;0.75;;;17.40;99.90;;;;;;5033089;28;20064;-70
2022/03/19 11:51:20;;;;;;;3.95;0.60;;;17.40;99.90;;;;;;5037479;28;20030;-67
2022/03/19 11:54:17;;;;;;;3.03;0.95;;;17.60;99.90;;;;;;5040933;28;20036;-69
2022/03/19 11:56:44;;;;;;;2.38;1.17;;;17.70;99.90;;;;;;5040366;28;20048;-70
2022/03/19 11:59:15;;;;;;;4.57;0.70;;;17.80;99.90;;;;;;5044324;28;20032;-68
2022/03/19 12:01:59;;;;;;;4.82;0.70;;;17.80;99.90;;;;;;5044903;28;20025;-69
2022/03/19 12:04:39;;;;;;;2.17;0.70;;;17.90;99.90;;;;;;5045001;28;20029;-70
2022/03/19 12:07:05;;;;;;;3.30;1.20;;;18.00;99.90;;;;;;5033885;28;20029;-69
2022/03/19 12:09:40;;;;;;;0.80;0.47;;;18.10;98.10;;;;;;5044912;28;20103;-70
2022/03/19 12:12:18;;;;;;;2.45;0.65;;;18.20;98.90;;;;;;5043116;28;20493;-70
2022/03/19 12:14:46;;;;;;;2.70;0.65;;;18.40;97.10;;;;;;5044144;28;20047;-68
2022/03/19 12:17:25;;;;;;;2.67;0.60;;;18.30;97.70;;;;;;5035007;28;20085;-68
2022/03/19 12:20:00;;;;;;;1.13;0.50;;;18.40;97.00;;;;;;5035001;28;20038;-70
2022/03/19 12:22:36;;;;;;;1.60;0.45;;;18.60;98.60;;;;;;5044340;28;20044;-70
2022/03/19 12:25:11;;;;;;;1.23;0.63;;;18.90;96.50;;;;;;5045006;28;20025;-71
2022/03/19 12:27:37;;;;;;;6.53;0.80;;;19.00;97.40;;;;;;5037440;28;20539;-69
2022/03/19 12:30:05;;;;;;;1.02;0.50;;;19.10;97.10;;;;;;5033356;28;20033;-69
2022/03/19 12:32:56;;;;;;;2.42;0.70;;;19.10;97.60;;;;;;5043493;28;20109;-69
2022/03/19 12:35:24;;;;;;;3.45;1.10;;;19.30;94.40;;;;;;5039846;28;20033;-70
2022/03/19 12:37:55;;;;;;;5.65;0.80;;;19.20;97.70;;;;;;5028347;28;20236;-70
2022/03/19 12:40:27;;;;;;;1.33;0.63;;;19.40;97.10;;;;;;5028930;28;20079;-71
2022/03/19 12:43:02;;;;;;;3.05;0.60;;;19.60;94.20;;;;;;5024146;28;20057;-71
2022/03/19 12:45:44;;;;;;;2.25;0.60;;;19.50;94.30;;;;;;5024403;28;20022;-68
2022/03/19 12:48:12;;;;;;;1.95;0.52;;;19.40;94.90;;;;;;5025228;28;20414;-69
2022/03/19 12:50:39;;;;;;;4.20;0.88;;;19.50;96.20;;;;;;5026877;28;20033;-69
2022/03/19 12:53:05;;;;;;;4.22;0.95;;;19.50;94.60;;;;;;5028937;28;20078;-68
2022/03/19 12:55:31;;;;;;;6.65;0.70;;;19.80;95.10;;;;;;5028742;28;20037;-69
2022/03/19 12:57:58;;;;;;;2.60;0.75;;;19.80;94.10;;;;;;5027038;28;20026;-70
2022/03/19 13:00:24;;;;;;;1.80;0.77;;;19.90;91.10;;;;;;5028686;28;20025;-68
2022/03/19 13:02:57;;;;;;;0.82;0.30;;;20.00;92.50;;;;;;5047831;28;20085;-69
2022/03/19 13:05:23;;;;;;;0.55;0.30;;;20.30;91.70;;;;;;5048345;28;20370;-69
2022/03/19 13:08:03;;;;;;;0.43;0.32;;;20.30;90.40;;;;;;5031487;28;20052;-70
2022/03/19 13:10:30;;;;;;;1.70;0.50;;;20.30;87.60;;;;;;5039322;28;20088;-69
2022/03/19 13:13:09;;;;;;;2.72;0.45;;;20.20;88.50;;;;;;5040433;28;20061;-69
2022/03/19 13:15:34;;;;;;;1.38;0.52;;;20.40;83.80;;;;;;5046633;28;20093;-69